sensor_id;sensor_type;location;lat;lon;timestamp;temperature;humidity
2899;DHT22;1459;50.864;6.438;2022-07-19T01:04:08;42.40;23.30
2899;DHT22;1459;50.864;6.438;2022-07-19T01:06:37;20.70;99.90
2899;DHT22;1459;50.864;6.438;2022-07-19T01:09:04;20.20;99.90
2899;DHT22;1459;50.864;6.438;2022-07-19T01:11:31;20.10;99.90
2899;DHT22;1459;50.864;6.438;2022-07-19T01:13:58;20.00;99.90
2899;DHT22;1459;50.864;6.438;2022-07-19T01:16:25;20.00;99.90
2899;DHT22;1459;50.864;6.438;2022-07-19T01:18:52;20.00;99.90
2899;DHT22;1459;50.864;6.438;2022-07-19T01:21:21;20.00;99.90
2899;DHT22;1459;50.864;6.438;2022-07-19T01:23:49;19.90;99.90
2899;DHT22;1459;50.864;6.438;2022-07-19T01:26:16;19.90;99.90
2899;DHT22;1459;50.864;6.438;2022-07-19T01:28:44;19.90;99.90
2899;DHT22;1459;50.864;6.438;2022-07-19T01:31:11;19.80;99.90
2899;DHT22;1459;50.864;6.438;2022-07-19T01:33:39;19.80;99.90
2899;DHT22;1459;50.864;6.438;2022-07-19T01:36:07;19.80;99.90
2899;DHT22;1459;50.864;6.438;2022-07-19T01:38:36;19.70;99.90
2899;DHT22;1459;50.864;6.438;2022-07-19T01:41:04;19.70;99.90
2899;DHT22;1459;50.864;6.438;2022-07-19T06:28:54;20.90;99.90
2899;DHT22;1459;50.864;6.438;2022-07-19T06:31:23;24.10;99.90
2899;DHT22;1459;50.864;6.438;2022-07-19T06:33:51;24.20;99.90
2899;DHT22;1459;50.864;6.438;2022-07-19T06:36:18;24.30;99.90
2899;DHT22;1459;50.864;6.438;2022-07-19T06:38:46;24.50;99.90
2899;DHT22;1459;50.864;6.438;2022-07-19T06:41:15;24.50;99.90
2899;DHT22;1459;50.864;6.438;2022-07-19T06:43:42;24.60;99.90
2899;DHT22;1459;50.864;6.438;2022-07-19T06:46:09;24.80;99.90
2899;DHT22;1459;50.864;6.438;2022-07-19T06:48:38;24.90;99.90
2899;DHT22;1459;50.864;6.438;2022-07-19T06:51:06;25.00;99.90
2899;DHT22;1459;50.864;6.438;2022-07-19T06:53:34;25.20;99.90
2899;DHT22;1459;50.864;6.438;2022-07-19T06:56:01;25.20;99.90
2899;DHT22;1459;50.864;6.438;2022-07-19T06:58:28;25.40;99.90
2899;DHT22;1459;50.864;6.438;2022-07-19T07:00:56;25.50;99.90
2899;DHT22;1459;50.864;6.438;2022-07-19T07:03:23;25.70;99.90
2899;DHT22;1459;50.864;6.438;2022-07-19T07:05:51;25.80;99.90
2899;DHT22;1459;50.864;6.438;2022-07-19T07:08:19;25.90;99.90
2899;DHT22;1459;50.864;6.438;2022-07-19T07:10:46;26.10;99.90
2899;DHT22;1459;50.864;6.438;2022-07-19T07:13:13;26.20;99.90
2899;DHT22;1459;50.864;6.438;2022-07-19T07:15:41;26.30;99.90
2899;DHT22;1459;50.864;6.438;2022-07-19T07:18:09;26.50;99.90
2899;DHT22;1459;50.864;6.438;2022-07-19T07:20:36;26.60;99.90
2899;DHT22;1459;50.864;6.438;2022-07-19T07:23:04;26.70;99.90
2899;DHT22;1459;50.864;6.438;2022-07-19T07:25:31;26.90;99.90
2899;DHT22;1459;50.864;6.438;2022-07-19T07:27:58;27.00;99.90
2899;DHT22;1459;50.864;6.438;2022-07-19T07:30:26;27.10;99.90
2899;DHT22;1459;50.864;6.438;2022-07-19T07:32:53;27.20;99.90
2899;DHT22;1459;50.864;6.438;2022-07-19T07:35:22;27.30;99.90
2899;DHT22;1459;50.864;6.438;2022-07-19T07:37:49;27.40;99.90
2899;DHT22;1459;50.864;6.438;2022-07-19T07:40:17;27.50;99.90
2899;DHT22;1459;50.864;6.438;2022-07-19T07:42:45;27.70;99.90
2899;DHT22;1459;50.864;6.438;2022-07-19T07:45:12;27.80;99.90
2899;DHT22;1459;50.864;6.438;2022-07-19T07:52:35;28.00;99.90
2899;DHT22;1459;50.864;6.438;2022-07-19T08:04:53;28.80;99.90
2899;DHT22;1459;50.864;6.438;2022-07-19T11:22:49;34.70;42.90
2899;DHT22;1459;50.864;6.438;2022-07-19T11:25:24;34.60;42.60
2899;DHT22;1459;50.864;6.438;2022-07-19T11:27:51;34.80;42.40
2899;DHT22;1459;50.864;6.438;2022-07-19T11:30:21;34.80;44.70
2899;DHT22;1459;50.864;6.438;2022-07-19T11:32:53;34.80;45.10
2899;DHT22;1459;50.864;6.438;2022-07-19T11:35:20;34.80;45.80
2899;DHT22;1459;50.864;6.438;2022-07-19T11:37:47;34.80;43.10
2899;DHT22;1459;50.864;6.438;2022-07-19T11:40:14;34.80;44.60
2899;DHT22;1459;50.864;6.438;2022-07-19T11:42:42;34.80;45.60
2899;DHT22;1459;50.864;6.438;2022-07-19T11:45:15;34.80;46.20
2899;DHT22;1459;50.864;6.438;2022-07-19T11:47:47;34.90;48.50
2899;DHT22;1459;50.864;6.438;2022-07-19T11:50:17;34.90;45.80
2899;DHT22;1459;50.864;6.438;2022-07-19T11:52:45;35.00;51.60
2899;DHT22;1459;50.864;6.438;2022-07-19T11:55:13;35.00;51.90
2899;DHT22;1459;50.864;6.438;2022-07-19T11:57:41;35.10;51.40
2899;DHT22;1459;50.864;6.438;2022-07-19T12:00:09;35.10;51.80
2899;DHT22;1459;50.864;6.438;2022-07-19T12:02:58;35.20;53.60
2899;DHT22;1459;50.864;6.438;2022-07-19T12:05:31;35.10;52.90
2899;DHT22;1459;50.864;6.438;2022-07-19T12:08:00;35.20;53.30
2899;DHT22;1459;50.864;6.438;2022-07-19T12:10:39;35.20;53.80
2899;DHT22;1459;50.864;6.438;2022-07-19T12:13:08;35.20;56.40
2899;DHT22;1459;50.864;6.438;2022-07-19T12:15:50;35.30;51.70
2899;DHT22;1459;50.864;6.438;2022-07-19T12:18:19;35.30;45.20
2899;DHT22;1459;50.864;6.438;2022-07-19T12:21:15;35.40;43.80
2899;DHT22;1459;50.864;6.438;2022-07-19T12:24:13;35.30;43.00
2899;DHT22;1459;50.864;6.438;2022-07-19T12:26:41;35.30;43.10
2899;DHT22;1459;50.864;6.438;2022-07-19T12:29:24;35.30;43.00
2899;DHT22;1459;50.864;6.438;2022-07-19T12:31:52;35.40;43.00
2899;DHT22;1459;50.864;6.438;2022-07-19T12:34:19;35.40;42.80
2899;DHT22;1459;50.864;6.438;2022-07-19T12:36:48;35.40;42.20
2899;DHT22;1459;50.864;6.438;2022-07-19T12:39:24;35.50;42.40
2899;DHT22;1459;50.864;6.438;2022-07-19T12:41:55;35.50;42.10
2899;DHT22;1459;50.864;6.438;2022-07-19T12:44:23;35.60;40.00
2899;DHT22;1459;50.864;6.438;2022-07-19T12:46:50;35.70;39.80
2899;DHT22;1459;50.864;6.438;2022-07-19T12:49:17;35.60;40.50
2899;DHT22;1459;50.864;6.438;2022-07-19T12:51:44;35.70;39.80
2899;DHT22;1459;50.864;6.438;2022-07-19T12:54:14;35.70;39.80
2899;DHT22;1459;50.864;6.438;2022-07-19T12:56:41;35.70;39.20
2899;DHT22;1459;50.864;6.438;2022-07-19T12:59:08;35.70;38.50
2899;DHT22;1459;50.864;6.438;2022-07-19T13:01:53;35.70;38.80
2899;DHT22;1459;50.864;6.438;2022-07-19T13:04:20;35.80;39.00
2899;DHT22;1459;50.864;6.438;2022-07-19T13:06:47;35.80;38.80
2899;DHT22;1459;50.864;6.438;2022-07-19T13:09:16;35.80;39.30
2899;DHT22;1459;50.864;6.438;2022-07-19T13:11:44;35.80;39.30
2899;DHT22;1459;50.864;6.438;2022-07-19T13:14:11;35.80;38.10
2899;DHT22;1459;50.864;6.438;2022-07-19T13:16:38;35.80;38.50
2899;DHT22;1459;50.864;6.438;2022-07-19T13:19:05;35.90;37.60
2899;DHT22;1459;50.864;6.438;2022-07-19T13:21:32;35.90;37.00
2899;DHT22;1459;50.864;6.438;2022-07-19T13:23:59;35.90;36.40
2899;DHT22;1459;50.864;6.438;2022-07-19T13:26:27;35.90;37.20
2899;DHT22;1459;50.864;6.438;2022-07-19T13:28:54;35.90;37.00
2899;DHT22;1459;50.864;6.438;2022-07-19T13:31:21;36.00;36.70
2899;DHT22;1459;50.864;6.438;2022-07-19T13:33:48;36.10;36.60
2899;DHT22;1459;50.864;6.438;2022-07-19T13:36:16;36.00;36.90
2899;DHT22;1459;50.864;6.438;2022-07-19T14:47:36;40.10;31.90
2899;DHT22;1459;50.864;6.438;2022-07-19T14:50:05;44.40;28.40
2899;DHT22;1459;50.864;6.438;2022-07-19T14:52:34;45.10;27.70
2899;DHT22;1459;50.864;6.438;2022-07-19T14:55:02;45.40;26.70
2899;DHT22;1459;50.864;6.438;2022-07-19T18:02:11;45.50;22.40
2899;DHT22;1459;50.864;6.438;2022-07-19T18:04:38;45.30;23.20
2899;DHT22;1459;50.864;6.438;2022-07-19T18:07:05;45.20;23.20
2899;DHT22;1459;50.864;6.438;2022-07-19T18:09:32;44.80;23.20
2899;DHT22;1459;50.864;6.438;2022-07-19T18:11:59;44.70;23.50
2899;DHT22;1459;50.864;6.438;2022-07-19T18:14:26;44.50;23.70
2899;DHT22;1459;50.864;6.438;2022-07-19T18:16:53;44.70;23.60
2899;DHT22;1459;50.864;6.438;2022-07-19T18:19:22;44.50;23.60
2899;DHT22;1459;50.864;6.438;2022-07-19T18:21:49;44.30;23.90
2899;DHT22;1459;50.864;6.438;2022-07-19T18:24:16;44.00;23.90
2899;DHT22;1459;50.864;6.438;2022-07-19T18:26:44;43.70;23.90
2899;DHT22;1459;50.864;6.438;2022-07-19T18:29:11;43.30;24.00
2899;DHT22;1459;50.864;6.438;2022-07-19T18:31:38;42.80;24.50
2899;DHT22;1459;50.864;6.438;2022-07-19T18:34:05;42.30;24.70
2899;DHT22;1459;50.864;6.438;2022-07-19T18:36:33;41.50;25.20
2899;DHT22;1459;50.864;6.438;2022-07-19T19:25:47;40.50;25.90
2899;DHT22;1459;50.864;6.438;2022-07-19T19:28:15;32.30;35.10
2899;DHT22;1459;50.864;6.438;2022-07-19T21:48:47;31.90;35.30
2899;DHT22;1459;50.864;6.438;2022-07-19T21:51:14;26.00;49.40
2899;DHT22;1459;50.864;6.438;2022-07-19T21:53:43;25.80;49.00
2899;DHT22;1459;50.864;6.438;2022-07-19T21:56:10;25.70;49.30
2899;DHT22;1459;50.864;6.438;2022-07-19T21:58:37;25.70;49.60
2899;DHT22;1459;50.864;6.438;2022-07-19T22:01:04;25.80;49.10
2899;DHT22;1459;50.864;6.438;2022-07-19T22:03:34;25.70;49.60
2899;DHT22;1459;50.864;6.438;2022-07-19T22:15:53;25.50;49.30
2899;DHT22;1459;50.864;6.438;2022-07-19T22:18:20;25.20;50.70
2899;DHT22;1459;50.864;6.438;2022-07-19T22:20:51;25.20;51.10
2899;DHT22;1459;50.864;6.438;2022-07-19T22:23:19;25.10;51.30
2899;DHT22;1459;50.864;6.438;2022-07-19T22:25:48;25.00;51.70
2899;DHT22;1459;50.864;6.438;2022-07-19T22:28:16;25.00;52.00
2899;DHT22;1459;50.864;6.438;2022-07-19T22:30:43;25.00;52.00
2899;DHT22;1459;50.864;6.438;2022-07-19T22:33:10;24.90;52.40
2899;DHT22;1459;50.864;6.438;2022-07-19T22:35:37;24.80;52.60
2899;DHT22;1459;50.864;6.438;2022-07-19T22:38:05;24.80;52.60
2899;DHT22;1459;50.864;6.438;2022-07-19T22:40:33;24.70;53.10
2899;DHT22;1459;50.864;6.438;2022-07-19T22:43:00;24.70;53.10
2899;DHT22;1459;50.864;6.438;2022-07-19T22:45:27;24.60;53.30
2899;DHT22;1459;50.864;6.438;2022-07-19T23:19:58;24.50;52.90
2899;DHT22;1459;50.864;6.438;2022-07-19T23:22:25;23.90;55.60
2899;DHT22;1459;50.864;6.438;2022-07-19T23:24:52;23.80;56.10
2899;DHT22;1459;50.864;6.438;2022-07-19T23:27:19;23.80;56.10
2899;DHT22;1459;50.864;6.438;2022-07-19T23:29:48;23.80;55.80
2899;DHT22;1459;50.864;6.438;2022-07-19T23:32:15;23.80;56.30
2899;DHT22;1459;50.864;6.438;2022-07-19T23:34:42;23.80;56.50
2899;DHT22;1459;50.864;6.438;2022-07-19T23:37:09;23.70;56.40
2899;DHT22;1459;50.864;6.438;2022-07-19T23:39:37;23.70;56.80
2899;DHT22;1459;50.864;6.438;2022-07-19T23:42:05;23.80;56.70
2899;DHT22;1459;50.864;6.438;2022-07-19T23:47:00;23.60;56.90
